• Join FlightAware (Why Join?)
  • Login
  • US Flag 
10:53AM EDT


 

Airport Tracker/Info


-or-


 

Live Flight TrackerFlight Track Log ✈ N665LF ✈ 23-Apr-2013 ✈ KTEB - KBED

Flight Track Log - Related Links

Times and Time Zones

All times are in EDT time to prevent confusion due to time zone crossing. See the N665LF flight status page for this flight to view local times or setup timezone preferences in your user account.

Time Position Orientation Groundspeed Altitude Reporting Facility
EDT Latitude Longitude Course Direction KTS MPH feet Rate Location/Type
02:46PM 40.8667 -74.0500 346° North 121 139 1,400  Level New York TRACON
02:47PM 40.9000 -74.0833 323° Northwest 150 173 2,500 1,020 Climbing New York TRACON
02:48PM 40.9167 -74.1333 294° West 174 200 3,500 900 Climbing New York TRACON
02:49PM 40.9500 -74.1667 323° Northwest 168 193 4,400 840 Climbing New York TRACON
02:50PM 41.0000 -74.2000 333° Northwest 170 196 5,200 720 Climbing New York TRACON
02:51PM 41.0812 -74.1049 346° North  Level FlightAware Approximate
02:51PM 41.0500 -74.2000 360° North 171 197 5,900  Level New York TRACON
02:52PM 41.0833 -74.1833 21° North 180 207 6,000  Climbing New York TRACON
02:53PM 41.1333 -74.1500 27° Northeast 190 219 6,000 120 Level New York TRACON
02:54PM 41.1500 -74.0833 72° East 180 207 6,300 480 Climbing New York TRACON
02:55PM 41.1667 -74.0167 72° East 158 182 7,100 600 Climbing New York TRACON
02:56PM 41.1833 -73.9667 66° East 158 182 7,600 480 Climbing New York TRACON
02:57PM 41.2000 -73.9167 66° East 164 189 8,100 360 Climbing New York TRACON
02:58PM 41.2000 -73.8667 90° East 169 194 8,400 300 Climbing New York TRACON
02:59PM 41.2167 -73.8000 72° East 169 194 8,800 240 Climbing New York TRACON
03:00PM 41.2333 -73.7333 72° East 183 211 9,000 60 Climbing New York TRACON
03:01PM 41.2500 -73.6667 72° East 187 215 9,000  Level New York TRACON
03:02PM 41.2833 -73.6000 56° Northeast 188 216 9,000  Level New York TRACON
03:03PM 41.3000 -73.5500 66° East 189 217 9,000  Level New York TRACON
03:04PM 41.3167 -73.4833 72° East 188 216 9,000  Level New York TRACON
03:06PM 41.3694 -73.3253 66° East 188 216 9,100  Climbing Boston Center
03:07PM 41.3867 -73.2756 65° Northeast 187 215 9,100  Level Boston Center
03:08PM 41.4119 -73.2094 63° Northeast 185 213 9,100  Level Boston Center
03:09PM 41.4333 -73.1461 66° East 182 209 9,100  Level Boston Center
03:10PM 41.4544 -73.0856 65° Northeast 180 207 9,100  Level Boston Center
03:11PM 41.4756 -73.0219 66° East 180 207 9,100  Level Boston Center
03:12PM 41.4967 -72.9611 65° Northeast 179 206 9,100  Level Boston Center
03:13PM 41.5200 -72.9003 63° Northeast 180 207 9,100  Level Boston Center
03:14PM 41.5389 -72.8422 66° East 177 204 9,100  Level Boston Center
03:15PM 41.5600 -72.7842 64° Northeast 177 204 9,100  Level Boston Center
03:16PM 41.5811 -72.7286 63° Northeast 176 203 9,100 -60 Level Boston Center
03:17PM 41.5978 -72.6706 69° East 176 203 9,000  Descending Boston Center
03:18PM 41.6208 -72.6067 64° Northeast 176 203 9,100  Climbing Boston Center
03:19PM 41.6397 -72.5483 67° East 176 203 9,100  Level Boston Center
03:20PM 41.6792 -72.5039 40° Northeast 180 207 9,100  Level Boston Center
03:21PM 41.7189 -72.4653 36° Northeast 181 208 9,100  Level Boston Center
03:23PM 41.7669 -72.4094 41° Northeast 179 206 9,100  Level Boston Center
03:23PM 41.8003 -72.3761 37° Northeast 178 205 9,100 -60 Level Boston Center
03:24PM 41.8397 -72.3314 40° Northeast 178 205 9,000 -300 Descending Boston Center
03:25PM 41.8792 -72.2867 40° Northeast 181 208 8,500 -540 Descending Boston Center
03:26PM 41.9167 -72.2447 40° Northeast 186 214 8,000 -600 Descending Boston Center
03:27PM 41.9583 -72.1944 42° Northeast 188 216 7,400 -600 Descending Boston Center
03:28PM 42.0000 -72.1497 39° Northeast 187 215 6,900 -540 Descending Boston Center
03:30PM 42.0394 -72.1047 40° Northeast 185 213 6,400 -540 Descending Boston Center
03:31PM 42.0789 -72.0625 38° Northeast 182 209 5,900 -540 Descending Boston Center
03:32PM 42.1161 -72.0147 44° Northeast 181 208 5,400 -420 Descending Boston Center
03:33PM 42.1639 -71.9639 38° Northeast 181 208 5,000 -120 Descending Boston Center
03:35PM 42.2333 -71.8833 41° Northeast 171 197 5,100  Climbing KA90
03:36PM 42.2833 -71.8333 36° Northeast 171 197 5,100  Level KA90
03:37PM 42.3167 -71.8000 36° Northeast 171 197 5,100  Level KA90
03:38PM 42.3500 -71.7500 48° Northeast 171 197 5,100  Level KA90
03:39PM 42.3833 -71.7167 36° Northeast 170 196 5,100 -60 Level KA90
03:40PM 42.4167 -71.6667 48° Northeast 149 171 5,000 -420 Descending KA90
03:41PM 42.4333 -71.6333 56° Northeast 139 160 4,300 -720 Descending KA90
03:42PM 42.4667 -71.6000 36° Northeast 133 153 3,600 -720 Descending KA90
03:43PM 42.4833 -71.5500 66° East 142 163 2,900 -720 Descending KA90
03:44PM 42.4833 -71.5167 90° East 138 159 2,200 -420 Descending KA90
03:45PM 42.4833 -71.4667 90° East 130 150 2,100 -60 Descending KA90
03:46PM 42.4833 -71.4167 90° East 110 127 2,100 -300 Level KA90
03:47PM 42.4833 -71.3833 90° East 106 122 1,500 -600 Descending KA90
03:48PM 42.4833 -71.3333 90° East 108 124 900 -600 Descending KA90
03:50PM 42.4667 -71.2833 135° Southeast  Level FlightAware Approximate
03:57PM 42.4699 -71.2890 135° Southeast  Level Estimated